sensor_id;sensor_type;location;lat;lon;timestamp;P1;durP1;ratioP1;P2;durP2;ratioP2
46897;SDS011;32646;50.958;6.258;2023-03-01T01:17:13;8.52;;;3.72;;
46897;SDS011;32646;50.958;6.258;2023-03-01T01:19:40;8.50;;;4.57;;
46897;SDS011;32646;50.958;6.258;2023-03-01T01:22:06;12.43;;;5.30;;
46897;SDS011;32646;50.958;6.258;2023-03-01T01:24:33;12.75;;;5.07;;
46897;SDS011;32646;50.958;6.258;2023-03-01T01:26:59;10.43;;;4.78;;
46897;SDS011;32646;50.958;6.258;2023-03-01T01:29:26;11.93;;;5.35;;
46897;SDS011;32646;50.958;6.258;2023-03-01T01:31:52;9.20;;;5.40;;
46897;SDS011;32646;50.958;6.258;2023-03-01T01:34:19;8.60;;;4.40;;
46897;SDS011;32646;50.958;6.258;2023-03-01T01:36:47;9.27;;;4.95;;
46897;SDS011;32646;50.958;6.258;2023-03-01T01:39:15;16.55;;;5.38;;
46897;SDS011;32646;50.958;6.258;2023-03-01T01:41:42;11.02;;;5.18;;
46897;SDS011;32646;50.958;6.258;2023-03-01T01:47:04;8.35;;;4.70;;
46897;SDS011;32646;50.958;6.258;2023-03-01T01:49:37;10.07;;;5.22;;
46897;SDS011;32646;50.958;6.258;2023-03-01T01:54:46;8.25;;;4.88;;
46897;SDS011;32646;50.958;6.258;2023-03-01T01:57:36;11.35;;;5.13;;
46897;SDS011;32646;50.958;6.258;2023-03-01T02:00:16;8.48;;;4.97;;
46897;SDS011;32646;50.958;6.258;2023-03-01T02:02:46;8.32;;;5.20;;
46897;SDS011;32646;50.958;6.258;2023-03-01T02:05:25;11.50;;;4.45;;
46897;SDS011;32646;50.958;6.258;2023-03-01T02:07:59;9.48;;;5.35;;
46897;SDS011;32646;50.958;6.258;2023-03-01T02:10:26;9.88;;;4.88;;
46897;SDS011;32646;50.958;6.258;2023-03-01T02:12:55;14.32;;;5.53;;
46897;SDS011;32646;50.958;6.258;2023-03-01T02:15:22;7.47;;;4.20;;
46897;SDS011;32646;50.958;6.258;2023-03-01T02:17:49;11.52;;;5.82;;
46897;SDS011;32646;50.958;6.258;2023-03-01T02:20:23;13.00;;;5.50;;
46897;SDS011;32646;50.958;6.258;2023-03-01T02:23:01;8.88;;;4.78;;
46897;SDS011;32646;50.958;6.258;2023-03-01T02:25:42;10.43;;;4.65;;
46897;SDS011;32646;50.958;6.258;2023-03-01T02:28:32;9.63;;;5.32;;
46897;SDS011;32646;50.958;6.258;2023-03-01T02:31:04;11.80;;;4.55;;
46897;SDS011;32646;50.958;6.258;2023-03-01T02:33:34;9.82;;;5.10;;
46897;SDS011;32646;50.958;6.258;2023-03-01T02:36:03;13.00;;;5.95;;
46897;SDS011;32646;50.958;6.258;2023-03-01T02:38:34;7.50;;;5.53;;
46897;SDS011;32646;50.958;6.258;2023-03-01T02:41:00;14.75;;;5.72;;
46897;SDS011;32646;50.958;6.258;2023-03-01T02:43:31;9.50;;;5.25;;
46897;SDS011;32646;50.958;6.258;2023-03-01T02:46:02;11.10;;;5.20;;
46897;SDS011;32646;50.958;6.258;2023-03-01T02:48:41;10.68;;;5.15;;
46897;SDS011;32646;50.958;6.258;2023-03-01T02:51:12;9.52;;;5.30;;
46897;SDS011;32646;50.958;6.258;2023-03-01T02:56:33;13.95;;;6.30;;
46897;SDS011;32646;50.958;6.258;2023-03-01T02:59:00;9.68;;;5.15;;
46897;SDS011;32646;50.958;6.258;2023-03-01T03:01:27;13.75;;;5.78;;
46897;SDS011;32646;50.958;6.258;2023-03-01T03:03:55;12.30;;;6.30;;
46897;SDS011;32646;50.958;6.258;2023-03-01T03:06:21;10.82;;;6.03;;
46897;SDS011;32646;50.958;6.258;2023-03-01T03:08:48;13.00;;;6.15;;
46897;SDS011;32646;50.958;6.258;2023-03-01T03:11:14;10.85;;;5.38;;
46897;SDS011;32646;50.958;6.258;2023-03-01T03:13:41;9.35;;;5.38;;
46897;SDS011;32646;50.958;6.258;2023-03-01T03:16:07;10.20;;;5.40;;
46897;SDS011;32646;50.958;6.258;2023-03-01T03:18:34;13.30;;;6.80;;
46897;SDS011;32646;50.958;6.258;2023-03-01T03:21:01;11.50;;;5.93;;
46897;SDS011;32646;50.958;6.258;2023-03-01T03:23:27;12.93;;;6.90;;
46897;SDS011;32646;50.958;6.258;2023-03-01T03:25:54;13.60;;;5.85;;
46897;SDS011;32646;50.958;6.258;2023-03-01T03:28:20;10.57;;;5.88;;
46897;SDS011;32646;50.958;6.258;2023-03-01T03:30:47;10.75;;;5.38;;
46897;SDS011;32646;50.958;6.258;2023-03-01T03:33:13;9.95;;;6.18;;
46897;SDS011;32646;50.958;6.258;2023-03-01T03:35:44;15.10;;;6.80;;
46897;SDS011;32646;50.958;6.258;2023-03-01T03:38:12;11.30;;;5.32;;
46897;SDS011;32646;50.958;6.258;2023-03-01T03:40:45;7.53;;;4.70;;
46897;SDS011;32646;50.958;6.258;2023-03-01T03:43:17;10.40;;;5.55;;
46897;SDS011;32646;50.958;6.258;2023-03-01T03:45:45;9.68;;;5.70;;
46897;SDS011;32646;50.958;6.258;2023-03-01T03:48:13;9.93;;;5.40;;
46897;SDS011;32646;50.958;6.258;2023-03-01T03:50:40;7.40;;;5.00;;
46897;SDS011;32646;50.958;6.258;2023-03-01T03:53:08;11.50;;;6.35;;
46897;SDS011;32646;50.958;6.258;2023-03-01T03:55:36;9.38;;;5.78;;
46897;SDS011;32646;50.958;6.258;2023-03-01T03:58:03;9.80;;;5.80;;
46897;SDS011;32646;50.958;6.258;2023-03-01T04:00:29;12.15;;;6.75;;
46897;SDS011;32646;50.958;6.258;2023-03-01T04:02:56;9.85;;;6.60;;
46897;SDS011;32646;50.958;6.258;2023-03-01T04:05:22;13.18;;;5.90;;
46897;SDS011;32646;50.958;6.258;2023-03-01T04:07:49;9.45;;;4.95;;
46897;SDS011;32646;50.958;6.258;2023-03-01T04:10:17;11.60;;;5.35;;
46897;SDS011;32646;50.958;6.258;2023-03-01T04:12:43;9.90;;;5.93;;
46897;SDS011;32646;50.958;6.258;2023-03-01T04:15:10;14.20;;;6.60;;
46897;SDS011;32646;50.958;6.258;2023-03-01T04:17:41;11.43;;;5.55;;
46897;SDS011;32646;50.958;6.258;2023-03-01T04:20:17;13.73;;;7.70;;
46897;SDS011;32646;50.958;6.258;2023-03-01T04:22:48;11.65;;;5.88;;
46897;SDS011;32646;50.958;6.258;2023-03-01T04:25:14;16.85;;;5.93;;
46897;SDS011;32646;50.958;6.258;2023-03-01T04:27:41;14.93;;;6.82;;
46897;SDS011;32646;50.958;6.258;2023-03-01T04:30:07;13.45;;;6.85;;
46897;SDS011;32646;50.958;6.258;2023-03-01T04:32:35;12.30;;;6.30;;
46897;SDS011;32646;50.958;6.258;2023-03-01T04:35:01;11.45;;;7.13;;
46897;SDS011;32646;50.958;6.258;2023-03-01T04:37:28;11.77;;;6.60;;
46897;SDS011;32646;50.958;6.258;2023-03-01T04:39:55;10.35;;;6.93;;
46897;SDS011;32646;50.958;6.258;2023-03-01T04:42:21;13.50;;;6.70;;
46897;SDS011;32646;50.958;6.258;2023-03-01T04:44:48;11.40;;;6.15;;
46897;SDS011;32646;50.958;6.258;2023-03-01T04:47:14;11.30;;;6.40;;
46897;SDS011;32646;50.958;6.258;2023-03-01T04:49:41;12.85;;;6.50;;
46897;SDS011;32646;50.958;6.258;2023-03-01T04:52:07;10.60;;;6.18;;
46897;SDS011;32646;50.958;6.258;2023-03-01T04:54:39;11.80;;;5.90;;
46897;SDS011;32646;50.958;6.258;2023-03-01T04:57:06;14.15;;;7.10;;
46897;SDS011;32646;50.958;6.258;2023-03-01T04:59:32;14.98;;;7.53;;
46897;SDS011;32646;50.958;6.258;2023-03-01T05:01:59;11.27;;;6.53;;
46897;SDS011;32646;50.958;6.258;2023-03-01T05:04:25;8.57;;;5.13;;
46897;SDS011;32646;50.958;6.258;2023-03-01T05:06:52;12.50;;;6.22;;
46897;SDS011;32646;50.958;6.258;2023-03-01T05:09:18;19.27;;;7.30;;
46897;SDS011;32646;50.958;6.258;2023-03-01T05:11:45;10.70;;;6.30;;
46897;SDS011;32646;50.958;6.258;2023-03-01T05:14:12;11.45;;;6.53;;
46897;SDS011;32646;50.958;6.258;2023-03-01T05:16:38;13.23;;;7.43;;
46897;SDS011;32646;50.958;6.258;2023-03-01T05:19:05;11.70;;;5.97;;
46897;SDS011;32646;50.958;6.258;2023-03-01T05:21:31;15.85;;;6.97;;
46897;SDS011;32646;50.958;6.258;2023-03-01T05:23:58;13.55;;;6.05;;
46897;SDS011;32646;50.958;6.258;2023-03-01T05:26:24;12.23;;;6.30;;
46897;SDS011;32646;50.958;6.258;2023-03-01T05:28:54;16.55;;;7.05;;
46897;SDS011;32646;50.958;6.258;2023-03-01T05:31:21;13.00;;;7.18;;
46897;SDS011;32646;50.958;6.258;2023-03-01T05:33:47;13.05;;;6.38;;
46897;SDS011;32646;50.958;6.258;2023-03-01T05:36:14;11.95;;;6.53;;
46897;SDS011;32646;50.958;6.258;2023-03-01T05:38:40;12.00;;;7.10;;
46897;SDS011;32646;50.958;6.258;2023-03-01T05:41:13;10.55;;;6.13;;
46897;SDS011;32646;50.958;6.258;2023-03-01T05:43:40;12.95;;;7.75;;
46897;SDS011;32646;50.958;6.258;2023-03-01T05:46:07;14.30;;;6.50;;
46897;SDS011;32646;50.958;6.258;2023-03-01T05:48:33;10.70;;;6.75;;
46897;SDS011;32646;50.958;6.258;2023-03-01T05:51:00;15.65;;;6.35;;
46897;SDS011;32646;50.958;6.258;2023-03-01T05:53:26;11.73;;;5.82;;
46897;SDS011;32646;50.958;6.258;2023-03-01T05:55:53;13.25;;;6.95;;
46897;SDS011;32646;50.958;6.258;2023-03-01T05:58:20;10.82;;;6.32;;
46897;SDS011;32646;50.958;6.258;2023-03-01T06:00:47;14.68;;;6.60;;
46897;SDS011;32646;50.958;6.258;2023-03-01T06:03:15;10.13;;;6.07;;
46897;SDS011;32646;50.958;6.258;2023-03-01T06:05:43;12.15;;;5.65;;
46897;SDS011;32646;50.958;6.258;2023-03-01T06:08:11;12.82;;;6.95;;
46897;SDS011;32646;50.958;6.258;2023-03-01T06:10:38;13.38;;;5.90;;
46897;SDS011;32646;50.958;6.258;2023-03-01T06:13:05;11.25;;;6.32;;
46897;SDS011;32646;50.958;6.258;2023-03-01T06:15:31;12.18;;;6.95;;
46897;SDS011;32646;50.958;6.258;2023-03-01T06:17:58;15.13;;;7.00;;
46897;SDS011;32646;50.958;6.258;2023-03-01T06:20:26;9.32;;;5.13;;
46897;SDS011;32646;50.958;6.258;2023-03-01T06:22:53;14.25;;;6.72;;
46897;SDS011;32646;50.958;6.258;2023-03-01T06:25:23;16.38;;;6.60;;
46897;SDS011;32646;50.958;6.258;2023-03-01T06:27:51;14.55;;;7.00;;
46897;SDS011;32646;50.958;6.258;2023-03-01T06:30:18;13.10;;;7.32;;
46897;SDS011;32646;50.958;6.258;2023-03-01T06:32:46;14.38;;;7.22;;
46897;SDS011;32646;50.958;6.258;2023-03-01T06:35:14;15.82;;;7.65;;
46897;SDS011;32646;50.958;6.258;2023-03-01T06:37:41;22.85;;;7.68;;
46897;SDS011;32646;50.958;6.258;2023-03-01T06:40:08;15.68;;;8.70;;
46897;SDS011;32646;50.958;6.258;2023-03-01T06:42:36;12.50;;;6.75;;
46897;SDS011;32646;50.958;6.258;2023-03-01T06:45:05;15.25;;;6.88;;
46897;SDS011;32646;50.958;6.258;2023-03-01T06:47:32;12.75;;;6.72;;
46897;SDS011;32646;50.958;6.258;2023-03-01T06:49:59;15.10;;;7.38;;
46897;SDS011;32646;50.958;6.258;2023-03-01T06:52:27;14.45;;;7.45;;
46897;SDS011;32646;50.958;6.258;2023-03-01T06:54:53;13.32;;;7.70;;
46897;SDS011;32646;50.958;6.258;2023-03-01T06:57:20;14.70;;;6.55;;
46897;SDS011;32646;50.958;6.258;2023-03-01T06:59:47;12.05;;;7.25;;
46897;SDS011;32646;50.958;6.258;2023-03-01T07:02:14;15.02;;;8.18;;
46897;SDS011;32646;50.958;6.258;2023-03-01T07:04:41;15.18;;;7.68;;
46897;SDS011;32646;50.958;6.258;2023-03-01T07:07:07;20.10;;;11.68;;
46897;SDS011;32646;50.958;6.258;2023-03-01T07:09:34;18.60;;;8.32;;
46897;SDS011;32646;50.958;6.258;2023-03-01T07:12:01;17.98;;;10.07;;
46897;SDS011;32646;50.958;6.258;2023-03-01T07:14:27;18.83;;;8.85;;
46897;SDS011;32646;50.958;6.258;2023-03-01T07:16:54;19.13;;;9.80;;
46897;SDS011;32646;50.958;6.258;2023-03-01T07:19:21;18.75;;;9.50;;
46897;SDS011;32646;50.958;6.258;2023-03-01T07:21:48;23.05;;;10.18;;
46897;SDS011;32646;50.958;6.258;2023-03-01T07:24:15;19.88;;;9.48;;
46897;SDS011;32646;50.958;6.258;2023-03-01T07:26:41;18.42;;;10.18;;
46897;SDS011;32646;50.958;6.258;2023-03-01T07:29:09;13.70;;;7.45;;
46897;SDS011;32646;50.958;6.258;2023-03-01T07:31:36;13.88;;;8.10;;
46897;SDS011;32646;50.958;6.258;2023-03-01T07:34:03;14.55;;;7.35;;
46897;SDS011;32646;50.958;6.258;2023-03-01T07:36:29;13.88;;;7.22;;
46897;SDS011;32646;50.958;6.258;2023-03-01T07:38:56;13.45;;;6.75;;
46897;SDS011;32646;50.958;6.258;2023-03-01T07:41:23;16.83;;;7.00;;
46897;SDS011;32646;50.958;6.258;2023-03-01T07:43:50;12.07;;;7.35;;
46897;SDS011;32646;50.958;6.258;2023-03-01T07:46:16;12.55;;;6.72;;
46897;SDS011;32646;50.958;6.258;2023-03-01T07:48:43;13.15;;;7.35;;
46897;SDS011;32646;50.958;6.258;2023-03-01T07:51:10;14.20;;;7.75;;
46897;SDS011;32646;50.958;6.258;2023-03-01T07:53:36;12.40;;;7.15;;
46897;SDS011;32646;50.958;6.258;2023-03-01T07:56:04;14.63;;;7.05;;
46897;SDS011;32646;50.958;6.258;2023-03-01T07:58:38;15.30;;;7.90;;
46897;SDS011;32646;50.958;6.258;2023-03-01T08:01:07;12.10;;;7.43;;
46897;SDS011;32646;50.958;6.258;2023-03-01T08:03:36;12.38;;;7.68;;
46897;SDS011;32646;50.958;6.258;2023-03-01T08:06:04;15.20;;;8.63;;
46897;SDS011;32646;50.958;6.258;2023-03-01T08:08:32;15.98;;;9.63;;
46897;SDS011;32646;50.958;6.258;2023-03-01T08:10:59;17.85;;;10.63;;
46897;SDS011;32646;50.958;6.258;2023-03-01T08:13:27;15.57;;;10.30;;
46897;SDS011;32646;50.958;6.258;2023-03-01T08:15:54;24.33;;;10.80;;
46897;SDS011;32646;50.958;6.258;2023-03-01T08:18:26;18.77;;;10.50;;
46897;SDS011;32646;50.958;6.258;2023-03-01T08:20:53;15.43;;;9.75;;
46897;SDS011;32646;50.958;6.258;2023-03-01T08:23:21;15.88;;;10.13;;
46897;SDS011;32646;50.958;6.258;2023-03-01T08:25:50;11.73;;;8.73;;
46897;SDS011;32646;50.958;6.258;2023-03-01T08:28:16;19.73;;;10.48;;
46897;SDS011;32646;50.958;6.258;2023-03-01T08:30:43;13.23;;;8.55;;
46897;SDS011;32646;50.958;6.258;2023-03-01T08:33:09;14.43;;;7.65;;
46897;SDS011;32646;50.958;6.258;2023-03-01T08:35:36;13.00;;;7.90;;
46897;SDS011;32646;50.958;6.258;2023-03-01T08:38:03;14.20;;;8.88;;
46897;SDS011;32646;50.958;6.258;2023-03-01T08:40:31;14.55;;;8.95;;
46897;SDS011;32646;50.958;6.258;2023-03-01T08:42:58;16.85;;;10.57;;
46897;SDS011;32646;50.958;6.258;2023-03-01T08:45:24;19.10;;;10.18;;
46897;SDS011;32646;50.958;6.258;2023-03-01T08:47:54;20.42;;;12.70;;
46897;SDS011;32646;50.958;6.258;2023-03-01T08:50:20;20.30;;;10.63;;
46897;SDS011;32646;50.958;6.258;2023-03-01T08:52:47;20.02;;;11.70;;
46897;SDS011;32646;50.958;6.258;2023-03-01T08:55:15;17.10;;;8.57;;
46897;SDS011;32646;50.958;6.258;2023-03-01T08:57:41;12.60;;;8.80;;
46897;SDS011;32646;50.958;6.258;2023-03-01T09:00:09;12.63;;;8.27;;
46897;SDS011;32646;50.958;6.258;2023-03-01T09:02:36;16.38;;;8.68;;
46897;SDS011;32646;50.958;6.258;2023-03-01T09:05:03;13.77;;;8.55;;
46897;SDS011;32646;50.958;6.258;2023-03-01T09:07:30;11.88;;;9.02;;
46897;SDS011;32646;50.958;6.258;2023-03-01T09:09:56;16.67;;;8.68;;
46897;SDS011;32646;50.958;6.258;2023-03-01T09:12:23;16.13;;;9.18;;
46897;SDS011;32646;50.958;6.258;2023-03-01T09:14:49;15.05;;;8.82;;
46897;SDS011;32646;50.958;6.258;2023-03-01T09:17:16;10.85;;;8.13;;
46897;SDS011;32646;50.958;6.258;2023-03-01T09:19:42;15.00;;;8.23;;
46897;SDS011;32646;50.958;6.258;2023-03-01T09:22:09;14.93;;;8.38;;
46897;SDS011;32646;50.958;6.258;2023-03-01T09:24:35;16.60;;;7.88;;
46897;SDS011;32646;50.958;6.258;2023-03-01T09:27:02;16.70;;;8.77;;
46897;SDS011;32646;50.958;6.258;2023-03-01T09:29:29;16.02;;;8.60;;
46897;SDS011;32646;50.958;6.258;2023-03-01T09:31:55;14.50;;;8.30;;
46897;SDS011;32646;50.958;6.258;2023-03-01T09:34:23;14.85;;;8.38;;
46897;SDS011;32646;50.958;6.258;2023-03-01T09:36:50;14.85;;;7.85;;
46897;SDS011;32646;50.958;6.258;2023-03-01T09:39:17;12.82;;;7.95;;
46897;SDS011;32646;50.958;6.258;2023-03-01T09:41:54;14.48;;;7.65;;
46897;SDS011;32646;50.958;6.258;2023-03-01T09:47:04;16.35;;;8.63;;
46897;SDS011;32646;50.958;6.258;2023-03-01T09:49:36;16.60;;;8.70;;
46897;SDS011;32646;50.958;6.258;2023-03-01T09:52:23;14.07;;;8.90;;
46897;SDS011;32646;50.958;6.258;2023-03-01T09:54:57;13.38;;;8.45;;
46897;SDS011;32646;50.958;6.258;2023-03-01T09:57:43;14.10;;;8.35;;
46897;SDS011;32646;50.958;6.258;2023-03-01T10:05:41;13.20;;;8.30;;
46897;SDS011;32646;50.958;6.258;2023-03-01T10:16:37;13.30;;;7.38;;
46897;SDS011;32646;50.958;6.258;2023-03-01T10:19:15;14.13;;;8.02;;
46897;SDS011;32646;50.958;6.258;2023-03-01T10:21:48;16.38;;;8.25;;
46897;SDS011;32646;50.958;6.258;2023-03-01T10:24:17;13.85;;;7.53;;
46897;SDS011;32646;50.958;6.258;2023-03-01T10:26:50;15.13;;;7.95;;
46897;SDS011;32646;50.958;6.258;2023-03-01T10:32:17;13.90;;;7.95;;
46897;SDS011;32646;50.958;6.258;2023-03-01T10:34:44;18.55;;;9.07;;
46897;SDS011;32646;50.958;6.258;2023-03-01T10:39:55;12.50;;;7.68;;
46897;SDS011;32646;50.958;6.258;2023-03-01T10:42:26;15.00;;;8.27;;
46897;SDS011;32646;50.958;6.258;2023-03-01T10:50:47;13.77;;;7.60;;
46897;SDS011;32646;50.958;6.258;2023-03-01T10:56:10;16.23;;;8.18;;
46897;SDS011;32646;50.958;6.258;2023-03-01T10:58:39;15.60;;;8.13;;
46897;SDS011;32646;50.958;6.258;2023-03-01T11:03:42;11.55;;;6.68;;
46897;SDS011;32646;50.958;6.258;2023-03-01T11:17:01;13.82;;;8.13;;
46897;SDS011;32646;50.958;6.258;2023-03-01T11:19:37;14.95;;;8.77;;
46897;SDS011;32646;50.958;6.258;2023-03-01T11:22:10;12.48;;;7.63;;
46897;SDS011;32646;50.958;6.258;2023-03-01T11:24:53;12.30;;;7.85;;
46897;SDS011;32646;50.958;6.258;2023-03-01T11:27:36;13.02;;;8.23;;
46897;SDS011;32646;50.958;6.258;2023-03-01T11:30:15;12.98;;;7.88;;
46897;SDS011;32646;50.958;6.258;2023-03-01T11:35:35;14.65;;;8.88;;
46897;SDS011;32646;50.958;6.258;2023-03-01T11:38:15;17.70;;;8.75;;
46897;SDS011;32646;50.958;6.258;2023-03-01T11:40:48;11.90;;;7.10;;
46897;SDS011;32646;50.958;6.258;2023-03-01T11:43:42;14.77;;;7.40;;
46897;SDS011;32646;50.958;6.258;2023-03-01T11:46:32;12.07;;;7.25;;
46897;SDS011;32646;50.958;6.258;2023-03-01T11:49:27;12.43;;;6.90;;
46897;SDS011;32646;50.958;6.258;2023-03-01T11:54:51;13.38;;;7.18;;
46897;SDS011;32646;50.958;6.258;2023-03-01T12:06:05;13.55;;;7.97;;
46897;SDS011;32646;50.958;6.258;2023-03-01T12:08:44;17.60;;;6.90;;
46897;SDS011;32646;50.958;6.258;2023-03-01T12:11:43;12.75;;;6.30;;
46897;SDS011;32646;50.958;6.258;2023-03-01T12:17:03;11.45;;;6.70;;
46897;SDS011;32646;50.958;6.258;2023-03-01T12:22:32;13.18;;;7.10;;
46897;SDS011;32646;50.958;6.258;2023-03-01T12:25:25;14.25;;;7.40;;
46897;SDS011;32646;50.958;6.258;2023-03-01T12:30:43;10.93;;;6.63;;
46897;SDS011;32646;50.958;6.258;2023-03-01T12:38:41;11.98;;;7.03;;
46897;SDS011;32646;50.958;6.258;2023-03-01T12:46:41;11.20;;;6.90;;
46897;SDS011;32646;50.958;6.258;2023-03-01T12:49:32;13.63;;;6.97;;
46897;SDS011;32646;50.958;6.258;2023-03-01T12:52:09;13.73;;;7.20;;
46897;SDS011;32646;50.958;6.258;2023-03-01T12:54:53;15.65;;;7.30;;
46897;SDS011;32646;50.958;6.258;2023-03-01T12:57:37;11.45;;;7.07;;
46897;SDS011;32646;50.958;6.258;2023-03-01T13:02:52;12.85;;;6.53;;
46897;SDS011;32646;50.958;6.258;2023-03-01T13:08:40;13.85;;;7.05;;
46897;SDS011;32646;50.958;6.258;2023-03-01T13:11:26;14.05;;;7.03;;
46897;SDS011;32646;50.958;6.258;2023-03-01T13:14:18;13.50;;;7.03;;
46897;SDS011;32646;50.958;6.258;2023-03-01T13:16:49;13.25;;;6.32;;
46897;SDS011;32646;50.958;6.258;2023-03-01T13:19:17;14.98;;;6.95;;
46897;SDS011;32646;50.958;6.258;2023-03-01T13:21:44;13.68;;;6.93;;
46897;SDS011;32646;50.958;6.258;2023-03-01T13:24:28;13.57;;;7.45;;
46897;SDS011;32646;50.958;6.258;2023-03-01T13:29:44;11.77;;;6.70;;
46897;SDS011;32646;50.958;6.258;2023-03-01T13:32:24;13.30;;;6.95;;
46897;SDS011;32646;50.958;6.258;2023-03-01T13:37:45;13.57;;;6.72;;
46897;SDS011;32646;50.958;6.258;2023-03-01T13:42:43;15.07;;;7.63;;
46897;SDS011;32646;50.958;6.258;2023-03-01T13:45:33;13.10;;;6.85;;
46897;SDS011;32646;50.958;6.258;2023-03-01T13:48:02;12.85;;;6.53;;
46897;SDS011;32646;50.958;6.258;2023-03-01T13:50:42;9.80;;;5.72;;
46897;SDS011;32646;50.958;6.258;2023-03-01T13:53:20;12.43;;;6.70;;
46897;SDS011;32646;50.958;6.258;2023-03-01T13:55:51;12.68;;;6.97;;
46897;SDS011;32646;50.958;6.258;2023-03-01T13:58:25;12.02;;;6.95;;
46897;SDS011;32646;50.958;6.258;2023-03-01T14:01:20;14.32;;;7.00;;
46897;SDS011;32646;50.958;6.258;2023-03-01T14:03:59;12.02;;;6.93;;
46897;SDS011;32646;50.958;6.258;2023-03-01T14:06:30;11.43;;;6.50;;
46897;SDS011;32646;50.958;6.258;2023-03-01T14:14:48;9.20;;;6.00;;
46897;SDS011;32646;50.958;6.258;2023-03-01T14:22:42;9.15;;;5.40;;
46897;SDS011;32646;50.958;6.258;2023-03-01T14:25:23;9.15;;;5.53;;
46897;SDS011;32646;50.958;6.258;2023-03-01T14:27:52;10.65;;;5.47;;
46897;SDS011;32646;50.958;6.258;2023-03-01T14:30:46;12.85;;;5.38;;
46897;SDS011;32646;50.958;6.258;2023-03-01T14:33:19;10.73;;;5.50;;
46897;SDS011;32646;50.958;6.258;2023-03-01T14:46:22;10.63;;;5.13;;
46897;SDS011;32646;50.958;6.258;2023-03-01T14:49:03;10.18;;;5.15;;
46897;SDS011;32646;50.958;6.258;2023-03-01T14:51:39;11.55;;;5.50;;
46897;SDS011;32646;50.958;6.258;2023-03-01T14:54:21;9.93;;;5.32;;
46897;SDS011;32646;50.958;6.258;2023-03-01T14:56:51;9.25;;;5.03;;
46897;SDS011;32646;50.958;6.258;2023-03-01T14:59:22;11.23;;;5.75;;
46897;SDS011;32646;50.958;6.258;2023-03-01T15:01:50;9.15;;;5.20;;
46897;SDS011;32646;50.958;6.258;2023-03-01T15:04:19;10.30;;;4.95;;
46897;SDS011;32646;50.958;6.258;2023-03-01T15:06:49;9.23;;;5.55;;
46897;SDS011;32646;50.958;6.258;2023-03-01T15:09:17;9.75;;;4.65;;
46897;SDS011;32646;50.958;6.258;2023-03-01T15:11:45;10.95;;;5.70;;
46897;SDS011;32646;50.958;6.258;2023-03-01T15:14:25;9.45;;;4.85;;
46897;SDS011;32646;50.958;6.258;2023-03-01T15:16:55;10.23;;;5.53;;
46897;SDS011;32646;50.958;6.258;2023-03-01T15:19:22;9.85;;;5.18;;
46897;SDS011;32646;50.958;6.258;2023-03-01T15:21:52;15.90;;;5.25;;
46897;SDS011;32646;50.958;6.258;2023-03-01T15:24:25;10.40;;;5.53;;
46897;SDS011;32646;50.958;6.258;2023-03-01T15:26:58;13.15;;;5.47;;
46897;SDS011;32646;50.958;6.258;2023-03-01T15:29:27;10.30;;;5.18;;
46897;SDS011;32646;50.958;6.258;2023-03-01T15:31:56;8.73;;;4.60;;
46897;SDS011;32646;50.958;6.258;2023-03-01T15:34:27;11.73;;;4.93;;
46897;SDS011;32646;50.958;6.258;2023-03-01T15:37:35;12.55;;;5.40;;
46897;SDS011;32646;50.958;6.258;2023-03-01T15:40:19;10.57;;;4.90;;
46897;SDS011;32646;50.958;6.258;2023-03-01T15:42:52;7.43;;;4.85;;
46897;SDS011;32646;50.958;6.258;2023-03-01T15:45:22;13.43;;;5.28;;
46897;SDS011;32646;50.958;6.258;2023-03-01T15:47:55;8.30;;;4.55;;
46897;SDS011;32646;50.958;6.258;2023-03-01T15:50:40;11.60;;;4.90;;
46897;SDS011;32646;50.958;6.258;2023-03-01T15:53:09;11.35;;;4.95;;
46897;SDS011;32646;50.958;6.258;2023-03-01T15:55:38;10.63;;;4.82;;
46897;SDS011;32646;50.958;6.258;2023-03-01T15:58:06;10.40;;;4.75;;
46897;SDS011;32646;50.958;6.258;2023-03-01T16:00:38;9.75;;;5.18;;
46897;SDS011;32646;50.958;6.258;2023-03-01T16:03:23;9.50;;;4.97;;
46897;SDS011;32646;50.958;6.258;2023-03-01T16:05:49;10.10;;;5.05;;
46897;SDS011;32646;50.958;6.258;2023-03-01T16:08:16;10.40;;;4.75;;
46897;SDS011;32646;50.958;6.258;2023-03-01T16:10:44;12.68;;;6.07;;
46897;SDS011;32646;50.958;6.258;2023-03-01T16:13:11;13.45;;;5.43;;
46897;SDS011;32646;50.958;6.258;2023-03-01T16:15:38;13.15;;;5.50;;
46897;SDS011;32646;50.958;6.258;2023-03-01T16:18:06;10.90;;;5.68;;
46897;SDS011;32646;50.958;6.258;2023-03-01T16:20:33;10.25;;;5.63;;
46897;SDS011;32646;50.958;6.258;2023-03-01T16:23:00;10.48;;;5.50;;
46897;SDS011;32646;50.958;6.258;2023-03-01T16:25:29;9.98;;;5.43;;
46897;SDS011;32646;50.958;6.258;2023-03-01T16:27:57;10.25;;;5.68;;
46897;SDS011;32646;50.958;6.258;2023-03-01T16:30:24;11.85;;;5.80;;
46897;SDS011;32646;50.958;6.258;2023-03-01T16:32:51;10.02;;;5.28;;
46897;SDS011;32646;50.958;6.258;2023-03-01T16:35:18;11.13;;;4.57;;
46897;SDS011;32646;50.958;6.258;2023-03-01T16:37:46;12.63;;;4.80;;
46897;SDS011;32646;50.958;6.258;2023-03-01T16:40:24;10.77;;;5.38;;
46897;SDS011;32646;50.958;6.258;2023-03-01T16:42:53;11.02;;;6.20;;
46897;SDS011;32646;50.958;6.258;2023-03-01T16:45:21;12.85;;;6.00;;
46897;SDS011;32646;50.958;6.258;2023-03-01T16:47:50;12.38;;;6.20;;
46897;SDS011;32646;50.958;6.258;2023-03-01T16:50:21;9.18;;;5.07;;
46897;SDS011;32646;50.958;6.258;2023-03-01T16:52:48;10.20;;;5.53;;
46897;SDS011;32646;50.958;6.258;2023-03-01T16:55:14;10.75;;;6.07;;
46897;SDS011;32646;50.958;6.258;2023-03-01T16:57:41;9.25;;;5.38;;
46897;SDS011;32646;50.958;6.258;2023-03-01T17:00:08;12.40;;;5.88;;
46897;SDS011;32646;50.958;6.258;2023-03-01T17:02:36;11.77;;;5.18;;
46897;SDS011;32646;50.958;6.258;2023-03-01T17:05:04;8.88;;;5.55;;
46897;SDS011;32646;50.958;6.258;2023-03-01T17:07:31;10.70;;;5.45;;
46897;SDS011;32646;50.958;6.258;2023-03-01T17:09:59;10.02;;;5.30;;
46897;SDS011;32646;50.958;6.258;2023-03-01T17:12:27;10.02;;;4.65;;
46897;SDS011;32646;50.958;6.258;2023-03-01T17:14:53;13.43;;;5.40;;
46897;SDS011;32646;50.958;6.258;2023-03-01T17:17:20;15.75;;;5.70;;
46897;SDS011;32646;50.958;6.258;2023-03-01T17:19:47;12.52;;;5.68;;
46897;SDS011;32646;50.958;6.258;2023-03-01T17:22:14;10.68;;;4.90;;
46897;SDS011;32646;50.958;6.258;2023-03-01T17:24:42;11.38;;;6.15;;
46897;SDS011;32646;50.958;6.258;2023-03-01T17:27:09;11.68;;;5.97;;
46897;SDS011;32646;50.958;6.258;2023-03-01T17:29:37;11.13;;;6.95;;
46897;SDS011;32646;50.958;6.258;2023-03-01T17:32:05;13.40;;;6.97;;
46897;SDS011;32646;50.958;6.258;2023-03-01T17:34:33;10.68;;;5.15;;
46897;SDS011;32646;50.958;6.258;2023-03-01T17:37:00;11.35;;;5.10;;
46897;SDS011;32646;50.958;6.258;2023-03-01T17:39:26;8.65;;;4.28;;
46897;SDS011;32646;50.958;6.258;2023-03-01T17:41:55;11.40;;;5.90;;
46897;SDS011;32646;50.958;6.258;2023-03-01T17:44:25;10.43;;;5.13;;
46897;SDS011;32646;50.958;6.258;2023-03-01T17:46:52;10.32;;;5.30;;
46897;SDS011;32646;50.958;6.258;2023-03-01T17:49:19;9.93;;;4.80;;
46897;SDS011;32646;50.958;6.258;2023-03-01T17:51:45;11.32;;;4.93;;
46897;SDS011;32646;50.958;6.258;2023-03-01T18:06:19;9.30;;;4.30;;
46897;SDS011;32646;50.958;6.258;2023-03-01T18:08:48;7.63;;;4.05;;
46897;SDS011;32646;50.958;6.258;2023-03-01T18:11:16;10.38;;;4.53;;
46897;SDS011;32646;50.958;6.258;2023-03-01T18:13:43;8.13;;;3.92;;
46897;SDS011;32646;50.958;6.258;2023-03-01T18:19:40;13.13;;;5.78;;
46897;SDS011;32646;50.958;6.258;2023-03-01T18:22:50;13.40;;;5.60;;
46897;SDS011;32646;50.958;6.258;2023-03-01T18:33:02;9.02;;;4.03;;
46897;SDS011;32646;50.958;6.258;2023-03-01T18:36:04;11.98;;;4.43;;